createdAt,value
2022-09-15T00:01:46.898Z,59.30
2022-09-15T00:04:37.355Z,59.17
2022-09-15T00:07:27.373Z,59.20
2022-09-15T00:10:18.775Z,59.16
2022-09-15T00:13:08.694Z,59.15
2022-09-15T00:15:58.908Z,59.18
2022-09-15T00:18:49.041Z,59.19
2022-09-15T00:21:40.484Z,59.10
2022-09-15T00:24:30.386Z,59.12
2022-09-15T00:27:20.656Z,59.15
2022-09-15T00:30:12.433Z,59.16
2022-09-15T00:33:02.370Z,59.19
2022-09-15T00:35:53.677Z,59.11
2022-09-15T00:38:43.566Z,59.13
2022-09-15T00:41:33.737Z,59.10
2022-09-15T00:44:51.312Z,59.09
2022-09-15T00:47:41.652Z,59.06
2022-09-15T00:50:32.045Z,59.07
2022-09-15T00:53:23.083Z,59.11
2022-09-15T00:56:12.983Z,59.05
2022-09-15T00:59:05.681Z,59.02
2022-09-15T01:01:58.566Z,59.15
2022-09-15T01:04:48.624Z,59.01
2022-09-15T01:07:46.086Z,58.99
2022-09-15T01:10:38.077Z,58.93
2022-09-15T01:13:29.511Z,59.03
2022-09-15T01:16:23.707Z,59.02
2022-09-15T01:19:47.949Z,58.95
2022-09-15T01:22:49.098Z,59.02
2022-09-15T01:26:01.182Z,59.00
2022-09-15T01:29:26.113Z,58.93
2022-09-15T01:32:38.234Z,58.90
2022-09-15T01:35:34.874Z,58.88
2022-09-15T01:38:33.110Z,58.83
2022-09-15T01:41:27.220Z,58.79
2022-09-15T01:44:21.685Z,58.83
2022-09-15T01:47:13.239Z,58.79
2022-09-15T01:50:07.991Z,58.73
2022-09-15T01:52:59.596Z,58.70
2022-09-15T01:55:53.549Z,58.66
2022-09-15T01:58:43.640Z,58.77
2022-09-15T02:01:47.366Z,58.66
2022-09-15T02:04:39.935Z,58.69
2022-09-15T02:07:34.944Z,58.67
2022-09-15T02:10:32.230Z,58.71
2022-09-15T02:13:24.911Z,58.67
2022-09-15T02:16:19.642Z,58.70
2022-09-15T02:19:15.180Z,58.63
2022-09-15T02:22:10.078Z,58.60
2022-09-15T02:25:02.413Z,58.59
2022-09-15T02:27:54.263Z,58.56
2022-09-15T02:30:44.818Z,58.59
2022-09-15T02:33:37.237Z,58.64
2022-09-15T02:36:28.476Z,58.60
2022-09-15T02:39:20.239Z,58.62
2022-09-15T02:42:11.035Z,58.54
2022-09-15T02:45:01.544Z,58.59
2022-09-15T02:47:52.117Z,58.67
2022-09-15T02:50:42.353Z,58.58
2022-09-15T02:53:32.530Z,58.57
2022-09-15T02:56:23.243Z,58.62
2022-09-15T02:59:13.162Z,58.53
2022-09-15T03:02:03.422Z,58.49
2022-09-15T03:04:53.536Z,58.46
2022-09-15T03:07:43.524Z,58.49
2022-09-15T03:10:33.470Z,58.53
2022-09-15T03:13:23.450Z,58.57
2022-09-15T03:16:14.583Z,58.55
2022-09-15T03:19:05.147Z,58.48
2022-09-15T03:21:55.165Z,58.52
2022-09-15T03:24:45.126Z,58.51
2022-09-15T03:27:35.365Z,58.47
2022-09-15T03:30:25.750Z,58.50
2022-09-15T03:33:15.653Z,58.50
2022-09-15T03:36:07.025Z,58.54
2022-09-15T03:38:58.096Z,58.50
2022-09-15T03:41:48.761Z,58.46
2022-09-15T03:44:38.819Z,58.36
2022-09-15T03:47:28.775Z,58.35
2022-09-15T03:50:19.780Z,58.25
2022-09-15T03:53:09.734Z,58.27
2022-09-15T03:56:11.117Z,58.31
2022-09-15T03:59:01.454Z,58.27
2022-09-15T04:01:51.495Z,58.27
2022-09-15T04:04:41.583Z,58.28
2022-09-15T04:07:31.815Z,58.24
2022-09-15T04:10:23.804Z,58.29
2022-09-15T04:13:13.737Z,58.28
2022-09-15T04:16:05.882Z,58.23
2022-09-15T04:18:56.266Z,58.30
2022-09-15T04:21:47.681Z,58.21
2022-09-15T04:24:37.605Z,58.19
2022-09-15T04:27:28.457Z,58.13
2022-09-15T04:30:18.764Z,58.19
2022-09-15T04:33:08.801Z,58.18
2022-09-15T04:36:01.370Z,58.21
2022-09-15T04:38:51.417Z,58.18
2022-09-15T04:41:41.458Z,58.11
2022-09-15T04:44:31.861Z,58.19
2022-09-15T04:47:21.787Z,58.26
2022-09-15T04:50:12.487Z,58.20
2022-09-15T04:53:02.733Z,58.24
2022-09-15T04:55:53.279Z,58.18
2022-09-15T04:58:44.302Z,58.23
2022-09-15T05:01:35.815Z,58.13
2022-09-15T05:04:26.018Z,58.26
2022-09-15T05:07:16.087Z,58.19
2022-09-15T05:10:08.467Z,58.11
2022-09-15T05:12:58.491Z,58.11
2022-09-15T05:15:48.516Z,58.11
2022-09-15T05:18:38.484Z,58.16
2022-09-15T05:21:28.548Z,58.15
2022-09-15T05:24:19.223Z,58.08
2022-09-15T05:27:09.281Z,58.06
2022-09-15T05:30:17.744Z,58.10
2022-09-15T05:33:09.374Z,58.10
2022-09-15T05:36:02.987Z,58.13
2022-09-15T05:38:53.464Z,58.12
2022-09-15T05:41:44.362Z,58.17
2022-09-15T05:44:34.338Z,58.20
2022-09-15T05:47:24.461Z,58.21
2022-09-15T05:50:14.788Z,58.22
2022-09-15T05:53:05.670Z,58.18
2022-09-15T05:55:58.203Z,58.20
2022-09-15T05:58:48.844Z,58.22
2022-09-15T06:01:38.917Z,58.23
2022-09-15T06:04:33.707Z,58.20
2022-09-15T06:07:23.872Z,58.21
2022-09-15T06:10:13.835Z,57.96
2022-09-15T06:13:03.965Z,58.09
2022-09-15T06:15:54.087Z,58.01
2022-09-15T06:18:45.928Z,58.02
2022-09-15T06:21:35.983Z,58.17
2022-09-15T06:24:25.918Z,58.25
2022-09-15T06:27:16.824Z,58.28
2022-09-15T06:30:09.825Z,58.29
2022-09-15T06:33:02.356Z,58.32
2022-09-15T06:35:52.280Z,58.27
2022-09-15T06:38:42.416Z,58.42
2022-09-15T06:41:58.372Z,58.30
2022-09-15T06:44:42.488Z,58.28
2022-09-15T06:47:33.644Z,58.29
2022-09-15T06:50:23.614Z,58.21
2022-09-15T06:53:15.572Z,58.22
2022-09-15T06:56:06.891Z,58.22
2022-09-15T06:58:56.902Z,58.19
2022-09-15T07:01:54.770Z,58.08
2022-09-15T07:04:44.759Z,58.10
2022-09-15T07:07:34.803Z,57.99
2022-09-15T07:10:24.713Z,58.01
2022-09-15T07:13:14.920Z,57.94
2022-09-15T07:16:09.582Z,57.94
2022-09-15T07:19:02.841Z,57.89
2022-09-15T07:21:53.058Z,57.87
2022-09-15T07:24:43.103Z,57.87
2022-09-15T07:27:33.054Z,57.85
2022-09-15T07:30:23.202Z,57.83
2022-09-15T07:33:15.037Z,57.79
2022-09-15T07:36:07.048Z,57.84
2022-09-15T07:38:57.276Z,57.78
2022-09-15T07:41:47.232Z,57.72
2022-09-15T07:44:37.169Z,57.71
2022-09-15T07:47:27.110Z,57.75
2022-09-15T07:50:17.653Z,57.77
2022-09-15T07:53:07.623Z,57.82
2022-09-15T07:55:57.526Z,57.87
2022-09-15T07:58:47.630Z,57.90
2022-09-15T08:01:37.970Z,57.88
2022-09-15T08:04:28.337Z,57.91
2022-09-15T08:07:18.269Z,57.97
2022-09-15T08:10:10.451Z,58.02
2022-09-15T08:13:00.696Z,58.10
2022-09-15T08:15:51.612Z,58.18
2022-09-15T08:18:42.657Z,58.21
2022-09-15T08:21:32.793Z,58.19
2022-09-15T08:24:23.027Z,58.23
2022-09-15T08:27:13.072Z,58.20
2022-09-15T08:30:03.469Z,58.28
2022-09-15T08:32:53.724Z,58.30
2022-09-15T08:35:43.698Z,58.33
2022-09-15T08:38:33.701Z,58.30
2022-09-15T08:41:26.049Z,58.35
2022-09-15T08:44:26.869Z,58.40
2022-09-15T08:47:20.540Z,58.44
2022-09-15T08:50:24.393Z,58.47
2022-09-15T08:53:16.708Z,58.44
2022-09-15T08:56:17.836Z,58.49
2022-09-15T08:59:13.187Z,58.44
2022-09-15T09:02:47.774Z,58.34
2022-09-15T09:05:51.830Z,58.45
2022-09-15T09:10:25.903Z,58.49
2022-09-15T09:15:21.251Z,58.48
2022-09-15T09:24:11.228Z,58.27
2022-09-15T09:32:03.035Z,58.17
2022-09-15T09:35:37.555Z,57.88
2022-09-15T09:55:35.395Z,57.45
2022-09-15T09:59:05.605Z,57.31
2022-09-15T10:06:43.807Z,57.24
2022-09-15T10:10:37.825Z,56.83
2022-09-15T10:14:31.159Z,56.96
2022-09-15T10:19:53.001Z,56.56
2022-09-15T10:22:39.083Z,56.26
2022-09-15T10:26:26.024Z,56.05
2022-09-15T10:29:32.596Z,55.96
2022-09-15T10:32:46.180Z,55.53
2022-09-15T10:36:57.644Z,55.57
2022-09-15T10:45:11.849Z,55.32
2022-09-15T10:48:33.016Z,54.73
2022-09-15T10:52:37.570Z,54.33
2022-09-15T10:56:35.603Z,54.64
2022-09-15T10:59:57.162Z,54.58
2022-09-15T11:04:10.178Z,54.47
2022-09-15T11:08:53.363Z,54.36
2022-09-15T11:12:55.420Z,54.32
2022-09-15T11:20:47.009Z,54.05
2022-09-15T11:24:41.274Z,53.78
2022-09-15T11:27:58.154Z,53.67
2022-09-15T11:31:50.438Z,53.60
2022-09-15T11:35:04.931Z,53.60
2022-09-15T11:59:59.146Z,53.41
2022-09-15T12:14:15.829Z,53.40
2022-09-15T12:17:07.705Z,53.08
2022-09-15T12:20:02.973Z,52.80
2022-09-15T12:26:47.273Z,52.95
2022-09-15T12:40:46.755Z,53.02
2022-09-15T12:45:02.065Z,52.83
2022-09-15T12:52:26.015Z,52.87
2022-09-15T12:56:16.050Z,52.30
2022-09-15T12:59:25.337Z,52.66
2022-09-15T13:04:05.054Z,52.63
2022-09-15T13:08:00.079Z,52.65
2022-09-15T13:11:05.235Z,52.46
2022-09-15T13:21:53.730Z,52.50
2022-09-15T13:24:36.143Z,52.55
2022-09-15T13:27:57.330Z,52.47
2022-09-15T13:31:02.816Z,52.37
2022-09-15T13:38:26.255Z,52.12
2022-09-15T13:41:28.566Z,52.34
2022-09-15T13:45:02.661Z,52.82
2022-09-15T13:48:04.585Z,53.08
2022-09-15T13:50:59.087Z,53.15
2022-09-15T13:53:52.542Z,53.49
2022-09-15T13:56:42.963Z,53.75
2022-09-15T13:59:34.602Z,54.11
2022-09-15T14:02:25.526Z,54.06
2022-09-15T14:05:16.481Z,54.08
2022-09-15T14:08:08.897Z,54.28
2022-09-15T14:11:01.003Z,54.28
2022-09-15T14:13:51.274Z,54.42
2022-09-15T14:16:41.539Z,54.49
2022-09-15T14:19:34.229Z,54.46
2022-09-15T14:22:30.693Z,54.55
2022-09-15T14:25:21.906Z,54.64
2022-09-15T14:28:18.068Z,54.69
2022-09-15T14:31:10.396Z,54.67
2022-09-15T14:34:07.471Z,54.64
2022-09-15T14:37:02.137Z,54.67
2022-09-15T14:39:55.807Z,54.71
2022-09-15T14:42:46.190Z,54.75
2022-09-15T14:48:51.920Z,54.91
2022-09-15T14:51:43.031Z,54.83
2022-09-15T14:54:36.384Z,54.82
2022-09-15T14:57:30.884Z,54.84
2022-09-15T15:00:23.528Z,54.84
2022-09-15T15:03:25.277Z,54.82
2022-09-15T15:06:28.717Z,54.92
2022-09-15T15:09:21.397Z,54.86
2022-09-15T15:12:21.862Z,55.04
2022-09-15T15:15:13.228Z,54.92
2022-09-15T15:18:03.855Z,54.90
2022-09-15T15:20:54.641Z,54.84
2022-09-15T15:23:53.893Z,54.85
2022-09-15T15:26:46.371Z,54.90
2022-09-15T15:29:43.110Z,54.87
2022-09-15T15:32:34.326Z,54.95
2022-09-15T15:35:25.167Z,54.95
2022-09-15T15:38:16.870Z,54.95
2022-09-15T15:41:07.815Z,54.97
2022-09-15T15:44:07.262Z,55.02
2022-09-15T15:46:59.124Z,55.03
2022-09-15T15:50:11.791Z,55.03
2022-09-15T15:52:59.859Z,55.03
2022-09-15T15:55:50.143Z,55.05
2022-09-15T15:58:40.490Z,55.04
2022-09-15T16:01:30.663Z,55.06
2022-09-15T16:04:21.248Z,55.12
2022-09-15T16:07:15.014Z,55.10
2022-09-15T16:10:07.229Z,55.11
2022-09-15T16:12:57.273Z,55.10
2022-09-15T16:15:47.394Z,55.08
2022-09-15T16:18:37.680Z,55.14
2022-09-15T16:21:31.693Z,55.12
2022-09-15T16:24:21.880Z,55.18
2022-09-15T16:27:13.768Z,55.58
2022-09-15T16:30:07.676Z,55.30
2022-09-15T16:32:58.488Z,55.24
2022-09-15T16:35:50.750Z,55.28
2022-09-15T16:38:59.747Z,55.40
2022-09-15T16:42:04.469Z,56.04
2022-09-15T16:44:58.141Z,56.20
2022-09-15T16:47:55.160Z,55.75
2022-09-15T16:51:16.923Z,55.48
2022-09-15T16:54:00.776Z,54.86
2022-09-15T16:56:55.623Z,54.19
2022-09-15T16:59:50.188Z,52.94
2022-09-15T17:02:41.812Z,53.16
2022-09-15T17:05:38.039Z,52.38
2022-09-15T17:08:29.983Z,52.30
2022-09-15T17:11:23.428Z,52.38
2022-09-15T17:14:18.071Z,52.10
2022-09-15T17:17:24.614Z,52.26
2022-09-15T17:20:15.422Z,51.43
2022-09-15T17:23:16.298Z,50.96
2022-09-15T17:26:13.085Z,50.96
2022-09-15T17:30:09.882Z,50.37
2022-09-15T17:33:18.702Z,50.54
2022-09-15T17:36:12.954Z,50.05
2022-09-15T17:39:04.825Z,49.90
2022-09-15T17:42:13.997Z,49.73
2022-09-15T17:45:19.645Z,49.73
2022-09-15T17:48:15.419Z,49.46
2022-09-15T17:51:09.679Z,50.38
2022-09-15T17:54:10.010Z,50.73
2022-09-15T17:57:04.780Z,50.89
2022-09-15T17:59:55.118Z,51.05
2022-09-15T18:02:50.810Z,51.23
2022-09-15T18:05:43.995Z,51.40
2022-09-15T18:08:38.571Z,51.50
2022-09-15T18:11:32.159Z,51.64
2022-09-15T18:14:24.028Z,51.76
2022-09-15T18:17:41.658Z,51.90
2022-09-15T18:21:28.178Z,52.02
2022-09-15T18:24:19.459Z,52.15
2022-09-15T18:27:09.931Z,52.22
2022-09-15T18:30:00.431Z,52.31
2022-09-15T18:32:50.865Z,52.38
2022-09-15T18:35:41.485Z,52.43
2022-09-15T18:38:31.943Z,52.48
2022-09-15T18:41:27.392Z,52.54
2022-09-15T18:44:20.629Z,52.63
2022-09-15T18:47:12.757Z,52.68
2022-09-15T18:50:04.712Z,52.73
2022-09-15T18:52:55.472Z,52.78
2022-09-15T18:55:46.834Z,52.86
2022-09-15T18:58:39.812Z,52.88
2022-09-15T19:01:35.689Z,52.91
2022-09-15T19:04:32.758Z,53.00
2022-09-15T19:07:28.426Z,53.02
2022-09-15T19:10:28.720Z,53.07
2022-09-15T19:13:21.359Z,53.13
2022-09-15T19:16:12.188Z,53.18
2022-09-15T19:19:04.699Z,53.21
2022-09-15T19:21:56.530Z,53.27
2022-09-15T19:24:50.262Z,53.29
2022-09-15T19:27:51.984Z,53.33
2022-09-15T19:30:48.249Z,53.35
2022-09-15T19:33:47.002Z,53.39
2022-09-15T19:36:42.238Z,53.41
2022-09-15T19:39:38.554Z,53.45
2022-09-15T19:42:30.572Z,53.47
2022-09-15T19:45:34.964Z,53.49
2022-09-15T19:48:40.903Z,53.51
2022-09-15T19:51:46.371Z,53.54
2022-09-15T19:54:42.534Z,53.56
2022-09-15T19:57:57.433Z,53.59
2022-09-15T20:01:34.253Z,53.63
2022-09-15T20:04:24.728Z,53.62
2022-09-15T20:07:18.302Z,53.64
2022-09-15T20:10:12.175Z,53.66
2022-09-15T20:13:05.216Z,53.69
2022-09-15T20:16:07.644Z,53.71
2022-09-15T20:18:58.445Z,53.70
2022-09-15T20:21:56.665Z,53.72
2022-09-15T20:24:51.055Z,53.74
2022-09-15T20:27:43.647Z,53.74
2022-09-15T20:30:34.596Z,53.76
2022-09-15T20:33:27.259Z,53.76
2022-09-15T20:36:37.354Z,53.77
2022-09-15T20:39:38.857Z,53.83
2022-09-15T20:42:50.205Z,54.00
2022-09-15T20:46:20.942Z,54.04
2022-09-15T20:49:53.129Z,54.11
2022-09-15T20:53:14.829Z,54.17
2022-09-15T20:56:32.053Z,54.30
2022-09-15T20:59:30.843Z,54.44
2022-09-15T21:02:42.756Z,54.71
2022-09-15T21:05:33.479Z,54.85
2022-09-15T21:08:31.980Z,55.25
2022-09-15T21:11:25.741Z,55.80
2022-09-15T21:14:16.484Z,55.99
2022-09-15T21:17:07.250Z,55.78
2022-09-15T21:20:09.202Z,55.69
2022-09-15T21:22:59.588Z,55.71
2022-09-15T21:26:02.011Z,55.69
2022-09-15T21:28:52.752Z,55.65
2022-09-15T21:31:45.970Z,55.66
2022-09-15T21:34:36.081Z,55.61
2022-09-15T21:37:28.389Z,55.60
2022-09-15T21:40:19.084Z,55.67
2022-09-15T21:43:10.035Z,55.66
2022-09-15T21:46:03.247Z,55.61
2022-09-15T21:48:53.309Z,55.64
2022-09-15T21:51:43.394Z,55.64
2022-09-15T21:54:34.504Z,55.66
2022-09-15T21:57:24.532Z,55.65
2022-09-15T22:00:16.776Z,55.72
2022-09-15T22:03:07.136Z,55.66
2022-09-15T22:05:57.105Z,55.65
2022-09-15T22:08:47.390Z,55.69
2022-09-15T22:11:38.039Z,55.67
2022-09-15T22:14:27.976Z,55.68
2022-09-15T22:17:17.979Z,55.70
2022-09-15T22:20:09.448Z,55.71
2022-09-15T22:23:01.342Z,55.64
2022-09-15T22:25:52.327Z,55.69
2022-09-15T22:28:42.921Z,55.70
2022-09-15T22:31:33.036Z,55.73
2022-09-15T22:34:23.454Z,55.74
2022-09-15T22:37:17.623Z,55.75
2022-09-15T22:40:10.388Z,55.74
2022-09-15T22:43:00.399Z,55.73
2022-09-15T22:45:50.531Z,55.69
2022-09-15T22:49:05.616Z,55.67
2022-09-15T22:51:55.585Z,55.70
2022-09-15T22:54:45.641Z,55.68
2022-09-15T22:57:39.036Z,55.69
2022-09-15T23:00:29.599Z,55.68
2022-09-15T23:03:19.866Z,55.71
2022-09-15T23:06:10.127Z,55.69
2022-09-15T23:09:01.608Z,55.70
2022-09-15T23:11:51.566Z,55.71
2022-09-15T23:14:41.506Z,55.75
2022-09-15T23:17:32.018Z,55.71
2022-09-15T23:20:21.987Z,55.72
2022-09-15T23:23:11.947Z,55.72
2022-09-15T23:26:01.990Z,55.72
2022-09-15T23:28:52.536Z,55.75
2022-09-15T23:31:42.545Z,55.77
2022-09-15T23:34:33.046Z,55.77
2022-09-15T23:37:23.125Z,55.75
2022-09-15T23:40:13.441Z,55.74
2022-09-15T23:43:03.587Z,55.80
2022-09-15T23:45:53.647Z,55.80
2022-09-15T23:48:43.638Z,55.79
2022-09-15T23:51:34.062Z,55.77
2022-09-15T23:54:24.242Z,55.77
2022-09-15T23:57:14.417Z,55.77
